sensor_id;sensor_type;location;lat;lon;timestamp;P1;durP1;ratioP1;P2;durP2;ratioP2
72935;SDS011;61085;48.804;9.228;2022-08-19T00:00:18;14.13;;;12.90;;
72935;SDS011;61085;48.804;9.228;2022-08-19T00:03:04;13.90;;;12.70;;
72935;SDS011;61085;48.804;9.228;2022-08-19T00:05:52;15.23;;;13.57;;
72935;SDS011;61085;48.804;9.228;2022-08-19T00:08:38;15.20;;;13.90;;
72935;SDS011;61085;48.804;9.228;2022-08-19T00:11:24;15.50;;;14.10;;
72935;SDS011;61085;48.804;9.228;2022-08-19T00:14:13;15.30;;;13.90;;
72935;SDS011;61085;48.804;9.228;2022-08-19T00:17:01;14.83;;;13.53;;
72935;SDS011;61085;48.804;9.228;2022-08-19T00:19:47;16.83;;;15.10;;
72935;SDS011;61085;48.804;9.228;2022-08-19T00:22:33;15.10;;;13.70;;
72935;SDS011;61085;48.804;9.228;2022-08-19T00:25:19;16.17;;;14.67;;
72935;SDS011;61085;48.804;9.228;2022-08-19T00:28:05;16.10;;;14.60;;
72935;SDS011;61085;48.804;9.228;2022-08-19T00:30:51;15.87;;;14.53;;
72935;SDS011;61085;48.804;9.228;2022-08-19T00:33:38;14.02;;;12.85;;
72935;SDS011;61085;48.804;9.228;2022-08-19T00:36:24;16.00;;;14.30;;
72935;SDS011;61085;48.804;9.228;2022-08-19T00:39:11;14.80;;;13.50;;
72935;SDS011;61085;48.804;9.228;2022-08-19T00:41:57;14.47;;;13.17;;
72935;SDS011;61085;48.804;9.228;2022-08-19T00:44:43;14.87;;;13.33;;
72935;SDS011;61085;48.804;9.228;2022-08-19T00:47:29;15.10;;;13.63;;
72935;SDS011;61085;48.804;9.228;2022-08-19T00:50:17;14.83;;;13.40;;
72935;SDS011;61085;48.804;9.228;2022-08-19T00:53:04;15.85;;;14.32;;
72935;SDS011;61085;48.804;9.228;2022-08-19T00:55:51;15.37;;;13.77;;
72935;SDS011;61085;48.804;9.228;2022-08-19T00:58:40;13.95;;;12.75;;
72935;SDS011;61085;48.804;9.228;2022-08-19T01:01:26;14.13;;;12.93;;
72935;SDS011;61085;48.804;9.228;2022-08-19T01:04:12;15.82;;;13.73;;
72935;SDS011;61085;48.804;9.228;2022-08-19T01:06:58;14.35;;;13.05;;
72935;SDS011;61085;48.804;9.228;2022-08-19T01:09:46;16.52;;;14.27;;
72935;SDS011;61085;48.804;9.228;2022-08-19T01:12:32;15.90;;;14.50;;
72935;SDS011;61085;48.804;9.228;2022-08-19T01:15:21;15.30;;;14.03;;
72935;SDS011;61085;48.804;9.228;2022-08-19T01:18:12;15.77;;;14.30;;
72935;SDS011;61085;48.804;9.228;2022-08-19T01:21:00;15.38;;;13.98;;
72935;SDS011;61085;48.804;9.228;2022-08-19T01:23:51;15.80;;;14.23;;
72935;SDS011;61085;48.804;9.228;2022-08-19T01:26:40;16.17;;;14.70;;
72935;SDS011;61085;48.804;9.228;2022-08-19T01:29:28;14.88;;;13.57;;
72935;SDS011;61085;48.804;9.228;2022-08-19T01:32:15;16.52;;;14.88;;
72935;SDS011;61085;48.804;9.228;2022-08-19T01:35:03;17.10;;;15.50;;
72935;SDS011;61085;48.804;9.228;2022-08-19T01:37:51;14.52;;;13.10;;
72935;SDS011;61085;48.804;9.228;2022-08-19T01:40:42;15.70;;;14.27;;
72935;SDS011;61085;48.804;9.228;2022-08-19T01:43:28;16.23;;;14.63;;
72935;SDS011;61085;48.804;9.228;2022-08-19T01:46:14;16.45;;;14.90;;
72935;SDS011;61085;48.804;9.228;2022-08-19T01:49:00;16.77;;;15.23;;
72935;SDS011;61085;48.804;9.228;2022-08-19T01:51:47;17.73;;;15.93;;
72935;SDS011;61085;48.804;9.228;2022-08-19T01:54:34;19.63;;;15.15;;
72935;SDS011;61085;48.804;9.228;2022-08-19T01:57:20;16.67;;;15.00;;
72935;SDS011;61085;48.804;9.228;2022-08-19T02:00:07;16.58;;;15.07;;
72935;SDS011;61085;48.804;9.228;2022-08-19T02:02:56;16.80;;;15.10;;
72935;SDS011;61085;48.804;9.228;2022-08-19T02:05:42;16.73;;;15.13;;
72935;SDS011;61085;48.804;9.228;2022-08-19T02:08:29;16.98;;;15.43;;
72935;SDS011;61085;48.804;9.228;2022-08-19T02:11:34;16.58;;;14.77;;
72935;SDS011;61085;48.804;9.228;2022-08-19T02:14:23;16.38;;;14.77;;
72935;SDS011;61085;48.804;9.228;2022-08-19T02:17:09;19.27;;;16.80;;
72935;SDS011;61085;48.804;9.228;2022-08-19T02:19:55;18.52;;;16.83;;
72935;SDS011;61085;48.804;9.228;2022-08-19T02:22:42;22.98;;;17.92;;
72935;SDS011;61085;48.804;9.228;2022-08-19T02:25:28;20.35;;;17.65;;
72935;SDS011;61085;48.804;9.228;2022-08-19T02:28:14;19.83;;;17.80;;
72935;SDS011;61085;48.804;9.228;2022-08-19T02:31:01;18.70;;;16.70;;
72935;SDS011;61085;48.804;9.228;2022-08-19T02:33:47;17.70;;;15.93;;
72935;SDS011;61085;48.804;9.228;2022-08-19T02:36:34;18.23;;;16.52;;
72935;SDS011;61085;48.804;9.228;2022-08-19T02:39:20;17.70;;;16.10;;
72935;SDS011;61085;48.804;9.228;2022-08-19T02:42:06;17.83;;;16.02;;
72935;SDS011;61085;48.804;9.228;2022-08-19T02:44:52;17.80;;;16.05;;
72935;SDS011;61085;48.804;9.228;2022-08-19T02:47:40;19.73;;;17.58;;
72935;SDS011;61085;48.804;9.228;2022-08-19T02:50:27;18.17;;;16.38;;
72935;SDS011;61085;48.804;9.228;2022-08-19T02:53:13;19.60;;;17.60;;
72935;SDS011;61085;48.804;9.228;2022-08-19T02:55:59;19.33;;;17.30;;
72935;SDS011;61085;48.804;9.228;2022-08-19T02:58:45;20.95;;;18.92;;
72935;SDS011;61085;48.804;9.228;2022-08-19T03:01:34;19.83;;;17.85;;
72935;SDS011;61085;48.804;9.228;2022-08-19T03:04:20;21.00;;;18.80;;
72935;SDS011;61085;48.804;9.228;2022-08-19T03:07:06;20.88;;;18.55;;
72935;SDS011;61085;48.804;9.228;2022-08-19T03:09:52;20.90;;;18.75;;
72935;SDS011;61085;48.804;9.228;2022-08-19T03:12:38;20.65;;;18.52;;
72935;SDS011;61085;48.804;9.228;2022-08-19T03:15:24;22.17;;;19.35;;
72935;SDS011;61085;48.804;9.228;2022-08-19T03:18:11;22.30;;;20.00;;
72935;SDS011;61085;48.804;9.228;2022-08-19T03:20:58;22.40;;;19.95;;
72935;SDS011;61085;48.804;9.228;2022-08-19T03:23:44;20.85;;;18.65;;
72935;SDS011;61085;48.804;9.228;2022-08-19T03:26:31;22.08;;;19.20;;
72935;SDS011;61085;48.804;9.228;2022-08-19T03:29:17;20.80;;;18.60;;
72935;SDS011;61085;48.804;9.228;2022-08-19T03:32:04;22.83;;;20.52;;
72935;SDS011;61085;48.804;9.228;2022-08-19T03:34:51;22.52;;;20.17;;
72935;SDS011;61085;48.804;9.228;2022-08-19T03:37:38;22.13;;;19.75;;
72935;SDS011;61085;48.804;9.228;2022-08-19T03:40:24;26.38;;;21.13;;
72935;SDS011;61085;48.804;9.228;2022-08-19T03:43:10;22.63;;;20.33;;
72935;SDS011;61085;48.804;9.228;2022-08-19T03:46:00;21.17;;;19.08;;
72935;SDS011;61085;48.804;9.228;2022-08-19T03:48:48;20.88;;;18.75;;
72935;SDS011;61085;48.804;9.228;2022-08-19T03:51:39;23.15;;;20.75;;
72935;SDS011;61085;48.804;9.228;2022-08-19T03:54:25;23.48;;;21.02;;
72935;SDS011;61085;48.804;9.228;2022-08-19T03:57:12;21.95;;;19.60;;
72935;SDS011;61085;48.804;9.228;2022-08-19T03:59:58;22.25;;;19.95;;
72935;SDS011;61085;48.804;9.228;2022-08-19T04:02:44;22.85;;;20.60;;
72935;SDS011;61085;48.804;9.228;2022-08-19T04:05:30;25.83;;;19.70;;
72935;SDS011;61085;48.804;9.228;2022-08-19T04:08:16;23.77;;;21.33;;
72935;SDS011;61085;48.804;9.228;2022-08-19T04:11:09;24.52;;;21.30;;
72935;SDS011;61085;48.804;9.228;2022-08-19T04:13:56;23.75;;;21.25;;
72935;SDS011;61085;48.804;9.228;2022-08-19T04:16:42;23.60;;;20.52;;
72935;SDS011;61085;48.804;9.228;2022-08-19T04:19:29;23.88;;;21.30;;
72935;SDS011;61085;48.804;9.228;2022-08-19T04:22:16;25.65;;;23.05;;
72935;SDS011;61085;48.804;9.228;2022-08-19T04:25:03;24.45;;;21.95;;
72935;SDS011;61085;48.804;9.228;2022-08-19T04:27:49;22.30;;;20.10;;
72935;SDS011;61085;48.804;9.228;2022-08-19T04:30:39;22.60;;;20.33;;
72935;SDS011;61085;48.804;9.228;2022-08-19T04:33:30;23.90;;;21.42;;
72935;SDS011;61085;48.804;9.228;2022-08-19T04:36:17;27.00;;;21.67;;
72935;SDS011;61085;48.804;9.228;2022-08-19T04:39:07;24.38;;;21.98;;
72935;SDS011;61085;48.804;9.228;2022-08-19T04:41:55;21.65;;;19.55;;
72935;SDS011;61085;48.804;9.228;2022-08-19T04:44:59;25.90;;;23.08;;
72935;SDS011;61085;48.804;9.228;2022-08-19T04:47:46;23.15;;;20.90;;
72935;SDS011;61085;48.804;9.228;2022-08-19T04:50:32;25.20;;;22.50;;
72935;SDS011;61085;48.804;9.228;2022-08-19T04:53:18;23.77;;;21.27;;
72935;SDS011;61085;48.804;9.228;2022-08-19T04:56:12;22.23;;;19.98;;
72935;SDS011;61085;48.804;9.228;2022-08-19T04:59:00;24.95;;;22.42;;
72935;SDS011;61085;48.804;9.228;2022-08-19T05:01:49;24.00;;;21.40;;
72935;SDS011;61085;48.804;9.228;2022-08-19T05:04:35;24.23;;;21.35;;
72935;SDS011;61085;48.804;9.228;2022-08-19T05:07:24;24.33;;;21.42;;
72935;SDS011;61085;48.804;9.228;2022-08-19T05:10:10;26.77;;;22.58;;
72935;SDS011;61085;48.804;9.228;2022-08-19T05:12:56;48.03;;;26.80;;
72935;SDS011;61085;48.804;9.228;2022-08-19T05:15:43;33.80;;;24.42;;
72935;SDS011;61085;48.804;9.228;2022-08-19T05:18:29;24.20;;;20.83;;
72935;SDS011;61085;48.804;9.228;2022-08-19T05:21:34;23.20;;;20.80;;
72935;SDS011;61085;48.804;9.228;2022-08-19T05:24:39;37.38;;;24.60;;
72935;SDS011;61085;48.804;9.228;2022-08-19T05:27:25;22.65;;;20.30;;
72935;SDS011;61085;48.804;9.228;2022-08-19T05:30:11;22.80;;;20.40;;
72935;SDS011;61085;48.804;9.228;2022-08-19T05:32:58;22.15;;;19.95;;
72935;SDS011;61085;48.804;9.228;2022-08-19T05:35:44;24.52;;;22.10;;
72935;SDS011;61085;48.804;9.228;2022-08-19T05:38:31;23.77;;;21.38;;
72935;SDS011;61085;48.804;9.228;2022-08-19T05:41:17;23.10;;;20.70;;
72935;SDS011;61085;48.804;9.228;2022-08-19T05:44:04;23.27;;;20.98;;
72935;SDS011;61085;48.804;9.228;2022-08-19T05:46:54;24.30;;;21.98;;
72935;SDS011;61085;48.804;9.228;2022-08-19T05:49:40;23.13;;;20.65;;
72935;SDS011;61085;48.804;9.228;2022-08-19T05:52:27;25.77;;;22.10;;
72935;SDS011;61085;48.804;9.228;2022-08-19T05:55:14;25.10;;;22.50;;
72935;SDS011;61085;48.804;9.228;2022-08-19T05:58:00;24.50;;;22.10;;
72935;SDS011;61085;48.804;9.228;2022-08-19T06:00:47;29.05;;;23.38;;
72935;SDS011;61085;48.804;9.228;2022-08-19T06:03:32;24.65;;;22.15;;
72935;SDS011;61085;48.804;9.228;2022-08-19T06:06:19;22.80;;;20.50;;
72935;SDS011;61085;48.804;9.228;2022-08-19T06:09:06;30.38;;;23.08;;
72935;SDS011;61085;48.804;9.228;2022-08-19T06:11:54;25.13;;;22.58;;
72935;SDS011;61085;48.804;9.228;2022-08-19T06:14:49;23.02;;;20.63;;
72935;SDS011;61085;48.804;9.228;2022-08-19T06:17:36;24.27;;;21.77;;
72935;SDS011;61085;48.804;9.228;2022-08-19T06:20:24;25.90;;;22.90;;
72935;SDS011;61085;48.804;9.228;2022-08-19T06:23:10;24.98;;;22.48;;
72935;SDS011;61085;48.804;9.228;2022-08-19T06:25:56;26.60;;;23.05;;
72935;SDS011;61085;48.804;9.228;2022-08-19T06:28:42;26.17;;;23.52;;
72935;SDS011;61085;48.804;9.228;2022-08-19T06:31:32;26.75;;;23.55;;
72935;SDS011;61085;48.804;9.228;2022-08-19T06:34:19;26.85;;;22.83;;
72935;SDS011;61085;48.804;9.228;2022-08-19T06:37:05;27.17;;;23.60;;
72935;SDS011;61085;48.804;9.228;2022-08-19T06:39:51;26.73;;;23.38;;
72935;SDS011;61085;48.804;9.228;2022-08-19T06:42:37;24.77;;;22.27;;
72935;SDS011;61085;48.804;9.228;2022-08-19T06:45:24;25.83;;;23.13;;
72935;SDS011;61085;48.804;9.228;2022-08-19T06:48:11;26.45;;;23.55;;
72935;SDS011;61085;48.804;9.228;2022-08-19T06:50:57;29.58;;;22.95;;
72935;SDS011;61085;48.804;9.228;2022-08-19T06:53:43;25.90;;;23.33;;
72935;SDS011;61085;48.804;9.228;2022-08-19T06:56:32;24.88;;;22.20;;
72935;SDS011;61085;48.804;9.228;2022-08-19T06:59:21;24.23;;;21.33;;
72935;SDS011;61085;48.804;9.228;2022-08-19T07:02:12;24.70;;;22.20;;
72935;SDS011;61085;48.804;9.228;2022-08-19T07:04:58;26.48;;;23.75;;
72935;SDS011;61085;48.804;9.228;2022-08-19T07:07:46;25.48;;;22.83;;
72935;SDS011;61085;48.804;9.228;2022-08-19T07:10:32;25.50;;;22.73;;
72935;SDS011;61085;48.804;9.228;2022-08-19T07:13:20;24.35;;;21.88;;
72935;SDS011;61085;48.804;9.228;2022-08-19T07:16:07;26.13;;;23.45;;
72935;SDS011;61085;48.804;9.228;2022-08-19T07:18:54;24.42;;;21.88;;
72935;SDS011;61085;48.804;9.228;2022-08-19T07:21:41;24.48;;;21.88;;
72935;SDS011;61085;48.804;9.228;2022-08-19T07:24:27;24.45;;;21.98;;
72935;SDS011;61085;48.804;9.228;2022-08-19T07:27:14;27.63;;;22.42;;
72935;SDS011;61085;48.804;9.228;2022-08-19T07:30:00;25.85;;;21.75;;
72935;SDS011;61085;48.804;9.228;2022-08-19T07:32:46;23.20;;;20.05;;
72935;SDS011;61085;48.804;9.228;2022-08-19T07:35:32;22.00;;;19.80;;
72935;SDS011;61085;48.804;9.228;2022-08-19T07:38:18;23.80;;;21.30;;
72935;SDS011;61085;48.804;9.228;2022-08-19T07:41:05;25.52;;;22.73;;
72935;SDS011;61085;48.804;9.228;2022-08-19T07:43:51;23.88;;;21.30;;
72935;SDS011;61085;48.804;9.228;2022-08-19T07:46:39;20.92;;;18.83;;
72935;SDS011;61085;48.804;9.228;2022-08-19T07:49:26;21.67;;;19.48;;
72935;SDS011;61085;48.804;9.228;2022-08-19T07:52:12;21.23;;;19.02;;
72935;SDS011;61085;48.804;9.228;2022-08-19T07:54:58;24.70;;;22.13;;
72935;SDS011;61085;48.804;9.228;2022-08-19T07:57:45;24.83;;;20.25;;
72935;SDS011;61085;48.804;9.228;2022-08-19T08:00:31;23.52;;;20.98;;
72935;SDS011;61085;48.804;9.228;2022-08-19T08:03:18;24.10;;;21.17;;
72935;SDS011;61085;48.804;9.228;2022-08-19T08:06:05;24.00;;;21.40;;
72935;SDS011;61085;48.804;9.228;2022-08-19T08:09:11;21.83;;;19.48;;
72935;SDS011;61085;48.804;9.228;2022-08-19T08:11:59;21.27;;;19.38;;
72935;SDS011;61085;48.804;9.228;2022-08-19T08:14:49;23.85;;;21.38;;
72935;SDS011;61085;48.804;9.228;2022-08-19T08:17:38;24.63;;;22.02;;
72935;SDS011;61085;48.804;9.228;2022-08-19T08:20:25;23.98;;;21.63;;
72935;SDS011;61085;48.804;9.228;2022-08-19T08:23:11;30.33;;;21.17;;
72935;SDS011;61085;48.804;9.228;2022-08-19T08:26:10;23.67;;;21.30;;
72935;SDS011;61085;48.804;9.228;2022-08-19T08:28:58;24.67;;;22.10;;
72935;SDS011;61085;48.804;9.228;2022-08-19T08:31:44;22.65;;;20.45;;
72935;SDS011;61085;48.804;9.228;2022-08-19T08:34:30;25.23;;;22.58;;
72935;SDS011;61085;48.804;9.228;2022-08-19T08:37:16;24.98;;;21.90;;
72935;SDS011;61085;48.804;9.228;2022-08-19T08:40:07;23.23;;;20.85;;
72935;SDS011;61085;48.804;9.228;2022-08-19T08:43:11;22.80;;;20.50;;
72935;SDS011;61085;48.804;9.228;2022-08-19T08:46:00;21.50;;;19.13;;
72935;SDS011;61085;48.804;9.228;2022-08-19T08:51:56;20.48;;;18.67;;
72935;SDS011;61085;48.804;9.228;2022-08-19T08:54:46;21.95;;;19.75;;
72935;SDS011;61085;48.804;9.228;2022-08-19T08:57:55;19.45;;;17.08;;
72935;SDS011;61085;48.804;9.228;2022-08-19T09:00:46;21.77;;;19.65;;
72935;SDS011;61085;48.804;9.228;2022-08-19T09:03:33;23.17;;;20.85;;
72935;SDS011;61085;48.804;9.228;2022-08-19T09:06:25;21.98;;;19.77;;
72935;SDS011;61085;48.804;9.228;2022-08-19T09:09:24;22.83;;;19.90;;
72935;SDS011;61085;48.804;9.228;2022-08-19T09:12:34;19.33;;;17.52;;
72935;SDS011;61085;48.804;9.228;2022-08-19T09:15:42;21.10;;;18.98;;
72935;SDS011;61085;48.804;9.228;2022-08-19T09:18:19;21.27;;;19.10;;
72935;SDS011;61085;48.804;9.228;2022-08-19T09:20:45;22.23;;;19.93;;
72935;SDS011;61085;48.804;9.228;2022-08-19T09:23:12;24.40;;;20.10;;
72935;SDS011;61085;48.804;9.228;2022-08-19T09:25:38;20.73;;;18.67;;
72935;SDS011;61085;48.804;9.228;2022-08-19T09:28:05;21.33;;;19.33;;
72935;SDS011;61085;48.804;9.228;2022-08-19T09:30:36;21.98;;;19.60;;
72935;SDS011;61085;48.804;9.228;2022-08-19T09:33:06;24.15;;;21.85;;
72935;SDS011;61085;48.804;9.228;2022-08-19T09:35:32;21.00;;;18.80;;
72935;SDS011;61085;48.804;9.228;2022-08-19T09:37:58;21.40;;;18.48;;
72935;SDS011;61085;48.804;9.228;2022-08-19T09:40:24;21.60;;;19.48;;
72935;SDS011;61085;48.804;9.228;2022-08-19T09:42:51;21.17;;;18.98;;
72935;SDS011;61085;48.804;9.228;2022-08-19T09:45:19;22.10;;;19.80;;
72935;SDS011;61085;48.804;9.228;2022-08-19T09:47:46;21.95;;;19.90;;
72935;SDS011;61085;48.804;9.228;2022-08-19T09:50:13;22.50;;;20.30;;
72935;SDS011;61085;48.804;9.228;2022-08-19T09:52:39;21.43;;;19.13;;
72935;SDS011;61085;48.804;9.228;2022-08-19T09:55:07;21.40;;;19.23;;
72935;SDS011;61085;48.804;9.228;2022-08-19T09:57:35;0.70;;;0.50;;
72935;SDS011;61085;48.804;9.228;2022-08-19T10:00:01;0.75;;;0.70;;
72935;SDS011;61085;48.804;9.228;2022-08-19T10:02:30;0.60;;;0.40;;
72935;SDS011;61085;48.804;9.228;2022-08-19T10:04:55;0.73;;;0.73;;
72935;SDS011;61085;48.804;9.228;2022-08-19T10:07:40;1.88;;;1.77;;
72935;SDS011;61085;48.804;9.228;2022-08-19T10:10:06;20.30;;;18.13;;
72935;SDS011;61085;48.804;9.228;2022-08-19T10:12:32;19.02;;;17.10;;
72935;SDS011;61085;48.804;9.228;2022-08-19T10:14:58;19.95;;;18.05;;
72935;SDS011;61085;48.804;9.228;2022-08-19T10:17:24;20.17;;;18.13;;
72935;SDS011;61085;48.804;9.228;2022-08-19T10:19:51;22.73;;;20.77;;
72935;SDS011;61085;48.804;9.228;2022-08-19T10:22:17;19.90;;;17.80;;
72935;SDS011;61085;48.804;9.228;2022-08-19T10:24:43;25.20;;;19.60;;
72935;SDS011;61085;48.804;9.228;2022-08-19T10:27:11;20.85;;;18.65;;
72935;SDS011;61085;48.804;9.228;2022-08-19T10:29:38;20.25;;;17.85;;
72935;SDS011;61085;48.804;9.228;2022-08-19T10:32:04;23.47;;;20.33;;
72935;SDS011;61085;48.804;9.228;2022-08-19T10:34:32;19.35;;;17.35;;
72935;SDS011;61085;48.804;9.228;2022-08-19T10:37:00;20.25;;;18.15;;
72935;SDS011;61085;48.804;9.228;2022-08-19T10:39:26;18.50;;;16.80;;
72935;SDS011;61085;48.804;9.228;2022-08-19T10:41:54;18.85;;;17.15;;
72935;SDS011;61085;48.804;9.228;2022-08-19T10:44:21;25.23;;;21.63;;
72935;SDS011;61085;48.804;9.228;2022-08-19T10:46:48;19.55;;;17.30;;
72935;SDS011;61085;48.804;9.228;2022-08-19T10:49:13;18.30;;;16.73;;
72935;SDS011;61085;48.804;9.228;2022-08-19T10:51:39;17.47;;;15.70;;
72935;SDS011;61085;48.804;9.228;2022-08-19T10:54:27;17.52;;;15.93;;
72935;SDS011;61085;48.804;9.228;2022-08-19T10:57:13;18.08;;;16.38;;
72935;SDS011;61085;48.804;9.228;2022-08-19T10:59:46;16.00;;;14.23;;
72935;SDS011;61085;48.804;9.228;2022-08-19T11:02:26;16.20;;;14.57;;
72935;SDS011;61085;48.804;9.228;2022-08-19T11:05:00;16.10;;;14.50;;
72935;SDS011;61085;48.804;9.228;2022-08-19T11:07:26;16.23;;;13.90;;
72935;SDS011;61085;48.804;9.228;2022-08-19T11:09:52;15.57;;;13.97;;
72935;SDS011;61085;48.804;9.228;2022-08-19T11:12:18;13.90;;;12.70;;
72935;SDS011;61085;48.804;9.228;2022-08-19T11:14:44;14.45;;;13.23;;
72935;SDS011;61085;48.804;9.228;2022-08-19T11:17:10;14.47;;;13.00;;
72935;SDS011;61085;48.804;9.228;2022-08-19T11:19:38;13.20;;;12.13;;
72935;SDS011;61085;48.804;9.228;2022-08-19T11:22:06;13.03;;;11.93;;
72935;SDS011;61085;48.804;9.228;2022-08-19T11:24:34;11.07;;;10.38;;
72935;SDS011;61085;48.804;9.228;2022-08-19T11:27:02;11.27;;;10.33;;
72935;SDS011;61085;48.804;9.228;2022-08-19T11:29:31;10.77;;;9.88;;
72935;SDS011;61085;48.804;9.228;2022-08-19T11:31:59;11.27;;;10.15;;
72935;SDS011;61085;48.804;9.228;2022-08-19T11:34:26;12.05;;;10.75;;
72935;SDS011;61085;48.804;9.228;2022-08-19T11:36:53;10.85;;;9.95;;
72935;SDS011;61085;48.804;9.228;2022-08-19T11:39:24;11.20;;;10.02;;
72935;SDS011;61085;48.804;9.228;2022-08-19T11:41:51;11.00;;;10.07;;
72935;SDS011;61085;48.804;9.228;2022-08-19T11:44:17;11.00;;;10.10;;
72935;SDS011;61085;48.804;9.228;2022-08-19T11:46:44;11.33;;;10.43;;
72935;SDS011;61085;48.804;9.228;2022-08-19T11:49:12;12.20;;;11.00;;
72935;SDS011;61085;48.804;9.228;2022-08-19T11:51:39;29.17;;;23.43;;
72935;SDS011;61085;48.804;9.228;2022-08-19T11:54:07;30.88;;;27.65;;
72935;SDS011;61085;48.804;9.228;2022-08-19T11:56:33;37.60;;;28.25;;
72935;SDS011;61085;48.804;9.228;2022-08-19T11:59:00;34.70;;;28.77;;
72935;SDS011;61085;48.804;9.228;2022-08-19T12:01:26;31.05;;;27.85;;
72935;SDS011;61085;48.804;9.228;2022-08-19T12:03:53;30.60;;;27.27;;
72935;SDS011;61085;48.804;9.228;2022-08-19T12:06:30;30.38;;;27.13;;
72935;SDS011;61085;48.804;9.228;2022-08-19T12:08:58;32.00;;;28.58;;
72935;SDS011;61085;48.804;9.228;2022-08-19T12:11:26;30.08;;;26.90;;
72935;SDS011;61085;48.804;9.228;2022-08-19T12:13:52;33.15;;;27.38;;
72935;SDS011;61085;48.804;9.228;2022-08-19T12:16:20;27.40;;;24.60;;
72935;SDS011;61085;48.804;9.228;2022-08-19T12:18:49;28.70;;;25.63;;
72935;SDS011;61085;48.804;9.228;2022-08-19T12:21:16;30.17;;;27.08;;
72935;SDS011;61085;48.804;9.228;2022-08-19T12:23:46;30.25;;;26.98;;
72935;SDS011;61085;48.804;9.228;2022-08-19T12:26:13;28.88;;;26.23;;
72935;SDS011;61085;48.804;9.228;2022-08-19T12:28:39;27.83;;;25.13;;
72935;SDS011;61085;48.804;9.228;2022-08-19T12:31:06;28.52;;;25.25;;
72935;SDS011;61085;48.804;9.228;2022-08-19T12:33:32;27.98;;;24.85;;
72935;SDS011;61085;48.804;9.228;2022-08-19T12:36:03;31.77;;;26.97;;
72935;SDS011;61085;48.804;9.228;2022-08-19T12:38:31;28.85;;;25.85;;
72935;SDS011;61085;48.804;9.228;2022-08-19T12:40:59;31.60;;;28.23;;
72935;SDS011;61085;48.804;9.228;2022-08-19T12:43:25;32.50;;;29.10;;
72935;SDS011;61085;48.804;9.228;2022-08-19T12:45:51;32.58;;;29.13;;
72935;SDS011;61085;48.804;9.228;2022-08-19T12:48:17;31.23;;;27.90;;
72935;SDS011;61085;48.804;9.228;2022-08-19T12:50:44;35.60;;;29.42;;
72935;SDS011;61085;48.804;9.228;2022-08-19T12:53:10;30.35;;;27.02;;
72935;SDS011;61085;48.804;9.228;2022-08-19T12:55:37;33.70;;;29.80;;
72935;SDS011;61085;48.804;9.228;2022-08-19T12:58:02;29.83;;;26.53;;
72935;SDS011;61085;48.804;9.228;2022-08-19T13:00:28;31.17;;;28.03;;
72935;SDS011;61085;48.804;9.228;2022-08-19T13:02:55;31.75;;;28.38;;
72935;SDS011;61085;48.804;9.228;2022-08-19T13:05:22;32.43;;;28.27;;
72935;SDS011;61085;48.804;9.228;2022-08-19T13:07:51;33.95;;;28.48;;
72935;SDS011;61085;48.804;9.228;2022-08-19T13:10:21;29.73;;;26.50;;
72935;SDS011;61085;48.804;9.228;2022-08-19T13:12:49;30.27;;;27.17;;
72935;SDS011;61085;48.804;9.228;2022-08-19T13:15:16;31.67;;;28.38;;
72935;SDS011;61085;48.804;9.228;2022-08-19T13:17:45;31.05;;;27.73;;
72935;SDS011;61085;48.804;9.228;2022-08-19T13:20:16;28.90;;;25.65;;
72935;SDS011;61085;48.804;9.228;2022-08-19T13:22:44;32.13;;;27.02;;
72935;SDS011;61085;48.804;9.228;2022-08-19T13:25:11;34.40;;;26.33;;
72935;SDS011;61085;48.804;9.228;2022-08-19T13:27:37;30.75;;;27.52;;
72935;SDS011;61085;48.804;9.228;2022-08-19T13:30:05;30.80;;;27.60;;
72935;SDS011;61085;48.804;9.228;2022-08-19T13:32:51;29.27;;;26.27;;
72935;SDS011;61085;48.804;9.228;2022-08-19T13:35:35;32.85;;;27.75;;
72935;SDS011;61085;48.804;9.228;2022-08-19T13:38:06;30.33;;;26.92;;
72935;SDS011;61085;48.804;9.228;2022-08-19T13:40:32;33.93;;;29.90;;
72935;SDS011;61085;48.804;9.228;2022-08-19T13:43:01;32.22;;;28.83;;
72935;SDS011;61085;48.804;9.228;2022-08-19T13:45:28;34.00;;;30.23;;
72935;SDS011;61085;48.804;9.228;2022-08-19T13:47:58;34.85;;;28.60;;
72935;SDS011;61085;48.804;9.228;2022-08-19T13:50:26;31.70;;;28.25;;
72935;SDS011;61085;48.804;9.228;2022-08-19T13:52:53;33.63;;;28.35;;
72935;SDS011;61085;48.804;9.228;2022-08-19T13:55:20;31.60;;;28.13;;
72935;SDS011;61085;48.804;9.228;2022-08-19T13:57:49;33.03;;;29.58;;
72935;SDS011;61085;48.804;9.228;2022-08-19T14:00:19;33.53;;;28.63;;
72935;SDS011;61085;48.804;9.228;2022-08-19T14:02:46;36.05;;;31.83;;
72935;SDS011;61085;48.804;9.228;2022-08-19T14:05:16;37.22;;;32.08;;
72935;SDS011;61085;48.804;9.228;2022-08-19T14:07:42;34.45;;;30.60;;
72935;SDS011;61085;48.804;9.228;2022-08-19T14:10:09;31.83;;;28.47;;
72935;SDS011;61085;48.804;9.228;2022-08-19T14:12:36;35.67;;;31.65;;
72935;SDS011;61085;48.804;9.228;2022-08-19T14:15:03;34.92;;;31.15;;
72935;SDS011;61085;48.804;9.228;2022-08-19T14:17:30;33.67;;;30.00;;
72935;SDS011;61085;48.804;9.228;2022-08-19T14:19:56;36.70;;;32.00;;
72935;SDS011;61085;48.804;9.228;2022-08-19T14:22:33;38.45;;;31.83;;
72935;SDS011;61085;48.804;9.228;2022-08-19T14:25:00;39.08;;;32.47;;
72935;SDS011;61085;48.804;9.228;2022-08-19T14:27:26;36.85;;;33.00;;
72935;SDS011;61085;48.804;9.228;2022-08-19T14:29:52;36.80;;;32.47;;
72935;SDS011;61085;48.804;9.228;2022-08-19T14:32:18;38.70;;;32.72;;
72935;SDS011;61085;48.804;9.228;2022-08-19T14:34:43;36.07;;;31.30;;
72935;SDS011;61085;48.804;9.228;2022-08-19T14:37:12;38.97;;;33.58;;
72935;SDS011;61085;48.804;9.228;2022-08-19T14:39:39;37.05;;;33.05;;
72935;SDS011;61085;48.804;9.228;2022-08-19T14:42:06;35.97;;;30.42;;
72935;SDS011;61085;48.804;9.228;2022-08-19T14:44:33;34.63;;;30.58;;
72935;SDS011;61085;48.804;9.228;2022-08-19T14:46:59;39.00;;;31.85;;
72935;SDS011;61085;48.804;9.228;2022-08-19T14:49:24;35.93;;;31.97;;
72935;SDS011;61085;48.804;9.228;2022-08-19T14:51:50;33.43;;;30.23;;
72935;SDS011;61085;48.804;9.228;2022-08-19T14:54:16;34.97;;;29.40;;
72935;SDS011;61085;48.804;9.228;2022-08-19T14:56:41;35.17;;;30.97;;
72935;SDS011;61085;48.804;9.228;2022-08-19T14:59:08;33.55;;;29.95;;
72935;SDS011;61085;48.804;9.228;2022-08-19T15:01:34;39.57;;;31.77;;
72935;SDS011;61085;48.804;9.228;2022-08-19T15:03:59;36.87;;;31.40;;
72935;SDS011;61085;48.804;9.228;2022-08-19T15:06:25;34.13;;;30.07;;
72935;SDS011;61085;48.804;9.228;2022-08-19T15:08:52;34.00;;;29.85;;
72935;SDS011;61085;48.804;9.228;2022-08-19T15:11:19;31.75;;;28.45;;
72935;SDS011;61085;48.804;9.228;2022-08-19T15:13:47;35.25;;;31.05;;
72935;SDS011;61085;48.804;9.228;2022-08-19T15:16:15;33.47;;;30.00;;
72935;SDS011;61085;48.804;9.228;2022-08-19T15:18:41;31.83;;;28.33;;
72935;SDS011;61085;48.804;9.228;2022-08-19T15:21:09;32.47;;;28.80;;
72935;SDS011;61085;48.804;9.228;2022-08-19T15:23:37;29.42;;;26.33;;
72935;SDS011;61085;48.804;9.228;2022-08-19T15:26:04;30.80;;;27.80;;
72935;SDS011;61085;48.804;9.228;2022-08-19T15:28:30;30.63;;;27.30;;
72935;SDS011;61085;48.804;9.228;2022-08-19T15:30:57;30.58;;;26.48;;
72935;SDS011;61085;48.804;9.228;2022-08-19T15:33:23;29.65;;;26.52;;